Time;durP1;ratioP1;P1;durP2;ratioP2;P2;SDS_P1;SDS_P2;PMS_P1;PMS_P2;Temp;Humidity;BMP_temperature;BMP_pressure;BME280_temperature;BME280_humidity;BME280_pressure;Samples;Min_cycle;Max_cycle;Signal;HPM_P1;HPM_P2
2022/03/09 00:01:18;;;;;;;22.30;13.00;;;;;;;;;;4936447;28;92318;-74
2022/03/09 00:03:44;;;;;;;25.40;13.65;;;;;;;;;;4936707;28;93486;-75
2022/03/09 00:06:11;;;;;;;21.52;13.27;;;;;;;;;;4936085;28;93506;-74
2022/03/09 00:08:37;;;;;;;21.60;14.02;;;;;;;;;;4937246;28;91488;-75
2022/03/09 00:11:04;;;;;;;20.38;13.27;;;;;;;;;;4939438;28;92505;-74
2022/03/09 00:13:30;;;;;;;18.30;13.18;;;;;;;;;;4936432;28;92228;-75
2022/03/09 00:15:56;;;;;;;21.70;13.82;;;;;;;;;;4935495;28;94595;-76
2022/03/09 00:18:26;;;;;;;25.23;14.35;;;;;;;;;;4939836;28;93999;-75
2022/03/09 00:20:52;;;;;;;18.42;11.95;;;;;;;;;;4939231;28;92368;-75
2022/03/09 00:23:19;;;;;;;23.33;12.60;;;;;;;;;;4939396;28;92912;-75
2022/03/09 00:25:47;;;;;;;18.65;11.75;;;;;;;;;;4938595;28;93065;-75
2022/03/09 00:28:14;;;;;;;23.83;11.85;;;;;;;;;;4939704;28;92648;-76
2022/03/09 00:30:40;;;;;;;18.83;12.43;;;;;;;;;;4939508;28;93486;-76
2022/03/09 00:33:07;;;;;;;17.95;12.27;;;;;;;;;;4942823;28;93315;-76
2022/03/09 00:35:33;;;;;;;18.63;11.60;;;;;;;;;;4938293;28;94088;-76
2022/03/09 00:38:05;;;;;;;22.85;12.35;;;;;;;;;;4938288;28;93331;-75
2022/03/09 00:40:32;;;;;;;17.20;11.75;;;;;;;;;;4937941;28;94588;-75
2022/03/09 00:42:58;;;;;;;20.83;12.65;;;;;;;;;;4939361;28;95308;-76
2022/03/09 00:45:24;;;;;;;22.30;12.95;;;;;;;;;;4937945;28;94834;-75
2022/03/09 00:47:51;;;;;;;22.70;13.45;;;;;;;;;;4938964;28;92997;-75
2022/03/09 00:50:17;;;;;;;25.65;12.90;;;;;;;;;;4939561;28;93394;-75
2022/03/09 00:52:47;;;;;;;19.40;12.68;;;;;;;;;;4939076;28;93069;-75
2022/03/09 00:55:13;;;;;;;21.17;13.32;;;;;;;;;;4942350;28;92480;-74
2022/03/09 00:57:41;;;;;;;20.73;13.57;;;;;;;;;;4938859;28;94306;-76
2022/03/09 01:00:08;;;;;;;21.92;13.10;;;;;;;;;;4938197;28;93047;-74
2022/03/09 01:02:41;;;;;;;20.20;12.38;;;;;;;;;;4939120;28;93288;-75
2022/03/09 01:05:08;;;;;;;18.40;12.93;;;;;;;;;;4937603;28;95826;-76
2022/03/09 01:07:35;;;;;;;21.70;13.85;;;;;;;;;;4939112;28;92435;-74
2022/03/09 01:10:02;;;;;;;18.95;12.98;;;;;;;;;;4939154;28;93011;-75
2022/03/09 01:12:29;;;;;;;18.88;13.40;;;;;;;;;;4939084;28;93053;-77
2022/03/09 01:14:56;;;;;;;20.30;13.18;;;;;;;;;;4942823;28;92329;-76
2022/03/09 01:17:22;;;;;;;25.33;13.50;;;;;;;;;;4943449;28;92546;-74
2022/03/09 01:19:49;;;;;;;20.55;13.40;;;;;;;;;;4939157;28;92278;-75
2022/03/09 01:22:16;;;;;;;22.02;13.88;;;;;;;;;;4939381;28;93220;-75
2022/03/09 01:24:45;;;;;;;19.80;13.20;;;;;;;;;;4938819;28;93485;-75
2022/03/09 01:27:12;;;;;;;21.83;13.80;;;;;;;;;;4938324;28;92427;-75
2022/03/09 01:29:38;;;;;;;19.63;13.23;;;;;;;;;;4935881;28;95061;-75
2022/03/09 01:32:05;;;;;;;18.92;12.38;;;;;;;;;;4938527;28;93923;-74
2022/03/09 01:34:32;;;;;;;18.13;12.80;;;;;;;;;;4937525;28;92401;-75
2022/03/09 01:36:58;;;;;;;22.40;13.02;;;;;;;;;;4941424;28;93725;-74
2022/03/09 01:39:24;;;;;;;19.63;12.85;;;;;;;;;;4938107;28;93206;-75
2022/03/09 01:41:51;;;;;;;19.15;13.13;;;;;;;;;;4938551;28;93553;-75
2022/03/09 01:44:22;;;;;;;20.67;12.90;;;;;;;;;;4937951;28;93058;-75
2022/03/09 01:46:53;;;;;;;16.50;11.80;;;;;;;;;;4938768;28;91593;-74
2022/03/09 01:49:20;;;;;;;20.75;12.70;;;;;;;;;;4938389;28;92602;-75
2022/03/09 01:51:48;;;;;;;16.90;12.18;;;;;;;;;;4938662;28;93085;-75
2022/03/09 01:54:15;;;;;;;20.17;12.43;;;;;;;;;;4936748;28;95142;-74
2022/03/09 01:56:42;;;;;;;23.08;13.52;;;;;;;;;;4938131;28;94002;-75
2022/03/09 01:59:10;;;;;;;20.20;12.93;;;;;;;;;;4942015;28;93676;-74
2022/03/09 02:01:37;;;;;;;22.38;13.35;;;;;;;;;;4938268;28;93604;-74
2022/03/09 02:04:04;;;;;;;19.73;13.43;;;;;;;;;;4938037;28;93631;-74
2022/03/09 02:06:32;;;;;;;20.00;13.18;;;;;;;;;;4938088;28;92221;-74
2022/03/09 02:11:44;;;;;;;19.23;13.15;;;;;;;;;;4938568;28;93071;-73
2022/03/09 02:14:29;;;;;;;18.77;12.77;;;;;;;;;;4936869;28;92484;-74
2022/03/09 02:16:56;;;;;;;21.80;13.95;;;;;;;;;;4937011;28;94017;-74
2022/03/09 02:19:23;;;;;;;19.83;12.75;;;;;;;;;;4936298;28;96054;-75
2022/03/09 02:21:51;;;;;;;19.42;12.57;;;;;;;;;;4940799;28;92565;-74
2022/03/09 02:24:20;;;;;;;17.85;12.32;;;;;;;;;;4937773;28;92156;-75
2022/03/09 02:26:47;;;;;;;20.80;12.52;;;;;;;;;;4937060;28;92364;-74
2022/03/09 02:29:14;;;;;;;20.42;12.88;;;;;;;;;;4937834;28;93599;-74
2022/03/09 02:31:40;;;;;;;17.27;12.63;;;;;;;;;;4936745;28;93761;-74
2022/03/09 02:34:06;;;;;;;17.73;12.00;;;;;;;;;;4937642;28;92360;-75
2022/03/09 02:36:33;;;;;;;20.08;13.20;;;;;;;;;;4938203;28;93186;-74
2022/03/09 02:38:59;;;;;;;23.25;13.23;;;;;;;;;;4936916;28;93691;-74
2022/03/09 02:41:28;;;;;;;25.30;13.02;;;;;;;;;;4937551;28;92187;-74
2022/03/09 02:43:55;;;;;;;20.92;12.82;;;;;;;;;;4939031;28;94714;-73
2022/03/09 02:46:21;;;;;;;24.88;13.73;;;;;;;;;;4937233;28;92197;-74
2022/03/09 02:48:49;;;;;;;21.58;12.95;;;;;;;;;;4937246;28;92813;-74
2022/03/09 02:51:15;;;;;;;19.38;12.40;;;;;;;;;;4937452;28;94100;-75
2022/03/09 02:53:42;;;;;;;20.30;13.07;;;;;;;;;;4937564;28;92334;-74
2022/03/09 02:56:08;;;;;;;20.70;12.98;;;;;;;;;;4937506;28;93615;-74
2022/03/09 02:58:36;;;;;;;18.63;12.98;;;;;;;;;;4937182;28;93574;-74
2022/03/09 03:01:02;;;;;;;19.35;12.48;;;;;;;;;;4937976;28;91626;-74
2022/03/09 03:03:29;;;;;;;20.85;13.20;;;;;;;;;;4936999;28;92364;-75
2022/03/09 03:05:55;;;;;;;22.15;13.85;;;;;;;;;;4940535;28;94008;-74
2022/03/09 03:08:22;;;;;;;22.45;12.75;;;;;;;;;;4935516;28;94844;-74
2022/03/09 03:10:48;;;;;;;22.20;13.20;;;;;;;;;;4938004;28;92959;-74
2022/03/09 03:13:15;;;;;;;21.30;12.65;;;;;;;;;;4937273;28;92368;-75
2022/03/09 03:15:41;;;;;;;22.08;12.23;;;;;;;;;;4937227;28;93120;-75
2022/03/09 03:18:08;;;;;;;19.55;12.77;;;;;;;;;;4936510;28;93668;-75
2022/03/09 03:20:34;;;;;;;17.90;12.48;;;;;;;;;;4937365;28;92194;-74
2022/03/09 03:23:00;;;;;;;22.13;12.32;;;;;;;;;;4945722;28;94004;-74
2022/03/09 03:25:27;;;;;;;20.10;12.90;;;;;;;;;;4937613;28;91943;-74
2022/03/09 03:27:53;;;;;;;19.85;12.73;;;;;;;;;;4940307;28;92439;-74
2022/03/09 03:30:19;;;;;;;26.23;13.10;;;;;;;;;;4937139;28;93325;-74
2022/03/09 03:32:46;;;;;;;21.33;13.00;;;;;;;;;;4935266;28;94778;-75
2022/03/09 03:35:12;;;;;;;20.85;12.43;;;;;;;;;;4936486;28;95696;-74
2022/03/09 03:37:39;;;;;;;22.25;13.43;;;;;;;;;;4936391;28;93839;-74
2022/03/09 03:40:06;;;;;;;20.67;13.38;;;;;;;;;;4937182;28;92429;-74
2022/03/09 03:42:32;;;;;;;20.92;13.13;;;;;;;;;;4936737;28;93872;-74
2022/03/09 03:44:59;;;;;;;20.77;13.40;;;;;;;;;;4936812;28;93775;-74
2022/03/09 03:47:25;;;;;;;21.55;13.70;;;;;;;;;;4939315;28;92390;-74
2022/03/09 03:49:54;;;;;;;17.08;11.95;;;;;;;;;;4937410;28;92265;-74
2022/03/09 03:52:21;;;;;;;25.35;13.52;;;;;;;;;;4939235;28;92319;-74
2022/03/09 03:54:47;;;;;;;19.92;12.95;;;;;;;;;;4953703;28;92784;-74
2022/03/09 03:57:13;;;;;;;22.83;12.27;;;;;;;;;;4937455;28;95318;-73
2022/03/09 03:59:40;;;;;;;22.52;13.23;;;;;;;;;;4940234;28;92251;-74
2022/03/09 04:02:06;;;;;;;20.73;12.45;;;;;;;;;;4939955;28;94647;-74
2022/03/09 04:04:33;;;;;;;21.60;12.90;;;;;;;;;;4939694;28;93016;-74
2022/03/09 04:06:59;;;;;;;19.35;13.02;;;;;;;;;;4938864;28;92347;-73
2022/03/09 04:09:26;;;;;;;20.85;12.90;;;;;;;;;;4942988;28;92804;-74
2022/03/09 04:11:52;;;;;;;22.83;12.85;;;;;;;;;;4940037;28;92189;-74
2022/03/09 04:14:22;;;;;;;20.73;12.82;;;;;;;;;;4940283;28;93818;-74
2022/03/09 04:16:49;;;;;;;20.98;12.40;;;;;;;;;;4939668;28;93913;-74
2022/03/09 04:19:15;;;;;;;21.05;12.68;;;;;;;;;;4939847;28;92335;-74
2022/03/09 04:21:42;;;;;;;19.38;13.02;;;;;;;;;;4941227;28;94975;-74
2022/03/09 04:24:09;;;;;;;19.67;13.07;;;;;;;;;;4939620;28;94095;-74
2022/03/09 04:26:35;;;;;;;18.73;12.98;;;;;;;;;;4939512;28;92577;-74
2022/03/09 04:29:05;;;;;;;22.27;12.77;;;;;;;;;;4939130;28;94260;-74
2022/03/09 04:31:31;;;;;;;22.17;13.95;;;;;;;;;;4941351;28;94606;-74
2022/03/09 04:33:59;;;;;;;21.30;13.15;;;;;;;;;;4939671;28;93170;-73
2022/03/09 04:36:26;;;;;;;24.27;13.55;;;;;;;;;;4939554;28;93772;-73
2022/03/09 04:38:52;;;;;;;25.73;12.48;;;;;;;;;;4939839;28;91569;-74
2022/03/09 04:41:18;;;;;;;20.90;13.65;;;;;;;;;;4939201;28;93202;-74
2022/03/09 04:43:45;;;;;;;19.83;13.18;;;;;;;;;;4939371;28;92619;-73
2022/03/09 04:46:12;;;;;;;24.40;13.45;;;;;;;;;;4936526;28;94946;-74
2022/03/09 04:48:38;;;;;;;21.55;13.40;;;;;;;;;;4939222;28;95725;-73
2022/03/09 04:51:05;;;;;;;19.85;12.82;;;;;;;;;;4938136;28;94024;-75
2022/03/09 04:53:31;;;;;;;22.27;13.45;;;;;;;;;;4942383;28;92287;-74
2022/03/09 04:55:58;;;;;;;23.25;13.65;;;;;;;;;;4937920;28;95580;-74
2022/03/09 04:58:26;;;;;;;24.10;13.93;;;;;;;;;;4939093;28;92250;-74
2022/03/09 05:00:52;;;;;;;22.77;13.60;;;;;;;;;;4939116;28;93426;-74
2022/03/09 05:03:19;;;;;;;20.95;12.98;;;;;;;;;;4938858;28;92985;-74
2022/03/09 05:05:45;;;;;;;24.67;13.50;;;;;;;;;;4939058;28;92262;-73
2022/03/09 05:08:12;;;;;;;23.55;13.40;;;;;;;;;;4938895;28;93911;-74
2022/03/09 05:10:39;;;;;;;25.27;13.23;;;;;;;;;;4935855;28;96443;-74
2022/03/09 05:13:06;;;;;;;21.40;13.30;;;;;;;;;;4939213;28;92239;-73
2022/03/09 05:15:32;;;;;;;21.17;13.07;;;;;;;;;;4941692;28;92812;-73
2022/03/09 05:18:00;;;;;;;21.45;13.00;;;;;;;;;;4938859;28;92184;-73
2022/03/09 05:20:26;;;;;;;21.13;13.43;;;;;;;;;;4938985;28;93925;-74
2022/03/09 05:22:53;;;;;;;21.48;13.57;;;;;;;;;;4938502;28;93686;-75
2022/03/09 05:25:19;;;;;;;23.63;13.07;;;;;;;;;;4937536;28;93528;-75
2022/03/09 05:27:46;;;;;;;20.10;13.15;;;;;;;;;;4939136;28;93836;-75
2022/03/09 05:30:12;;;;;;;23.33;13.32;;;;;;;;;;4938549;28;93610;-75
2022/03/09 05:32:40;;;;;;;25.17;14.07;;;;;;;;;;4941765;28;92182;-75
2022/03/09 05:35:06;;;;;;;22.38;14.05;;;;;;;;;;4937446;28;94582;-74
2022/03/09 05:37:38;;;;;;;24.45;14.27;;;;;;;;;;4941165;28;93267;-74
2022/03/09 05:40:06;;;;;;;23.48;13.63;;;;;;;;;;4937793;28;93981;-74
2022/03/09 05:42:32;;;;;;;26.17;13.65;;;;;;;;;;4938380;28;93683;-74
2022/03/09 05:44:59;;;;;;;23.45;13.88;;;;;;;;;;4938540;28;92361;-75
2022/03/09 05:47:45;;;;;;;21.38;12.75;;;;;;;;;;4938196;28;93230;-74
2022/03/09 05:50:12;;;;;;;22.75;14.48;;;;;;;;;;4937547;28;94901;-74
2022/03/09 05:52:38;;;;;;;23.85;14.55;;;;;;;;;;4937644;28;91565;-74
2022/03/09 05:55:05;;;;;;;19.40;12.95;;;;;;;;;;4938240;28;92402;-73
2022/03/09 05:57:32;;;;;;;28.17;13.77;;;;;;;;;;4940863;28;93629;-73
2022/03/09 05:59:59;;;;;;;22.95;13.50;;;;;;;;;;4935663;28;95330;-73
2022/03/09 06:02:25;;;;;;;24.50;13.77;;;;;;;;;;4937732;28;93686;-76
2022/03/09 06:04:52;;;;;;;28.30;14.27;;;;;;;;;;4937864;28;92352;-74
2022/03/09 06:07:18;;;;;;;23.65;14.25;;;;;;;;;;4953083;28;93597;-74
2022/03/09 06:09:49;;;;;;;24.08;14.18;;;;;;;;;;4937862;28;92966;-74
2022/03/09 06:12:15;;;;;;;23.20;14.20;;;;;;;;;;4938077;28;92328;-75
2022/03/09 06:14:41;;;;;;;22.67;13.95;;;;;;;;;;4936713;28;93470;-74
2022/03/09 06:17:08;;;;;;;22.65;14.18;;;;;;;;;;4938146;28;92901;-74
2022/03/09 06:19:34;;;;;;;23.67;14.35;;;;;;;;;;4939854;28;92838;-74
2022/03/09 06:22:01;;;;;;;27.45;15.75;;;;;;;;;;4937802;28;92957;-74
2022/03/09 06:24:27;;;;;;;20.02;12.98;;;;;;;;;;4936233;28;94742;-74
2022/03/09 06:26:53;;;;;;;23.73;13.52;;;;;;;;;;4937884;28;95313;-75
2022/03/09 06:29:20;;;;;;;27.75;14.57;;;;;;;;;;4937674;28;92914;-74
2022/03/09 06:31:47;;;;;;;33.13;14.70;;;;;;;;;;4936945;28;92392;-74
2022/03/09 06:34:13;;;;;;;29.65;14.60;;;;;;;;;;4936580;28;95547;-74
2022/03/09 06:36:43;;;;;;;22.92;13.50;;;;;;;;;;4937298;28;94395;-75
2022/03/09 06:39:10;;;;;;;25.15;14.77;;;;;;;;;;4937917;28;92174;-74
2022/03/09 06:41:36;;;;;;;27.20;14.13;;;;;;;;;;4940735;28;94517;-74
2022/03/09 06:44:03;;;;;;;30.75;14.32;;;;;;;;;;4939460;28;92311;-75
2022/03/09 06:46:29;;;;;;;24.30;14.20;;;;;;;;;;4937462;28;92662;-75
2022/03/09 06:48:58;;;;;;;23.40;13.23;;;;;;;;;;4934634;28;96324;-75
2022/03/09 06:51:25;;;;;;;25.88;14.20;;;;;;;;;;4937703;28;92135;-75
2022/03/09 06:53:51;;;;;;;27.25;14.25;;;;;;;;;;4936157;28;94263;-75
2022/03/09 06:56:21;;;;;;;29.67;14.15;;;;;;;;;;4936249;28;94918;-75
2022/03/09 06:58:47;;;;;;;28.25;14.15;;;;;;;;;;4937036;28;92494;-76
2022/03/09 07:01:14;;;;;;;25.33;14.25;;;;;;;;;;4952330;28;93551;-75
2022/03/09 07:03:41;;;;;;;31.08;14.88;;;;;;;;;;4939286;28;94062;-74
2022/03/09 07:06:11;;;;;;;23.40;13.98;;;;;;;;;;4937946;28;93468;-74
2022/03/09 07:08:38;;;;;;;23.55;13.75;;;;;;;;;;4936056;28;95833;-74
2022/03/09 07:11:04;;;;;;;30.83;13.77;;;;;;;;;;4937641;28;92724;-75
2022/03/09 07:13:31;;;;;;;22.88;13.27;;;;;;;;;;4935809;28;94738;-75
2022/03/09 07:15:57;;;;;;;19.17;11.85;;;;;;;;;;4937373;28;94133;-75
2022/03/09 07:18:24;;;;;;;20.25;12.27;;;;;;;;;;4937547;28;92345;-77
2022/03/09 07:20:52;;;;;;;17.17;12.15;;;;;;;;;;4933647;28;96571;-76
2022/03/09 07:23:19;;;;;;;20.48;11.80;;;;;;;;;;4936857;28;94892;-79
2022/03/09 07:25:45;;;;;;;19.83;12.80;;;;;;;;;;4940557;28;92321;-74
2022/03/09 07:28:12;;;;;;;17.80;11.90;;;;;;;;;;4938646;28;94788;-74
2022/03/09 07:30:39;;;;;;;21.48;12.18;;;;;;;;;;4941085;28;92325;-75
2022/03/09 07:33:12;;;;;;;17.63;12.00;;;;;;;;;;4941230;28;92037;-76
2022/03/09 07:35:38;;;;;;;19.35;11.50;;;;;;;;;;4940394;28;94159;-74
2022/03/09 07:38:06;;;;;;;22.63;12.15;;;;;;;;;;4938894;28;94819;-75
2022/03/09 07:40:32;;;;;;;16.90;11.15;;;;;;;;;;4946334;28;95007;-74
2022/03/09 07:42:58;;;;;;;21.60;12.40;;;;;;;;;;4940549;28;93600;-74
2022/03/09 07:45:25;;;;;;;16.67;11.88;;;;;;;;;;4938908;28;92220;-74
2022/03/09 07:47:51;;;;;;;17.02;11.63;;;;;;;;;;4942617;28;93808;-74
2022/03/09 07:50:18;;;;;;;20.15;11.95;;;;;;;;;;4939300;28;92304;-74
2022/03/09 07:52:44;;;;;;;21.70;11.68;;;;;;;;;;4940328;28;92241;-75
2022/03/09 07:55:11;;;;;;;19.15;12.23;;;;;;;;;;4940217;28;93337;-73
2022/03/09 07:57:37;;;;;;;18.60;11.70;;;;;;;;;;4938897;28;93746;-74
2022/03/09 08:00:04;;;;;;;18.70;11.73;;;;;;;;;;4939913;28;93869;-75
2022/03/09 08:02:37;;;;;;;21.08;12.13;;;;;;;;;;4936624;28;95146;-74
2022/03/09 08:05:04;;;;;;;19.23;11.23;;;;;;;;;;4939673;28;92439;-74
2022/03/09 08:07:30;;;;;;;19.52;12.65;;;;;;;;;;4941819;28;93692;-72
2022/03/09 08:09:57;;;;;;;18.40;11.68;;;;;;;;;;4939318;28;92392;-73
2022/03/09 08:12:27;;;;;;;25.08;11.70;;;;;;;;;;4939889;28;93726;-73
2022/03/09 08:14:53;;;;;;;18.52;12.40;;;;;;;;;;4939456;28;93246;-74
2022/03/09 08:17:22;;;;;;;16.38;12.13;;;;;;;;;;4939751;28;92293;-74
2022/03/09 08:19:48;;;;;;;19.38;11.60;;;;;;;;;;4940351;28;92991;-73
2022/03/09 08:22:15;;;;;;;17.23;11.52;;;;;;;;;;4939387;28;93741;-75
2022/03/09 08:24:42;;;;;;;18.98;11.88;;;;;;;;;;4938560;28;92459;-76
2022/03/09 08:27:11;;;;;;;17.95;11.77;;;;;;;;;;4937981;28;94718;-75
2022/03/09 08:29:37;;;;;;;18.70;11.38;;;;;;;;;;4942685;28;93448;-76
2022/03/09 08:32:04;;;;;;;24.27;11.45;;;;;;;;;;4939522;28;93780;-75
2022/03/09 08:34:30;;;;;;;15.52;11.98;;;;;;;;;;4939092;28;93683;-75
2022/03/09 08:36:58;;;;;;;19.60;11.40;;;;;;;;;;4937898;28;92349;-74
2022/03/09 08:39:26;;;;;;;17.77;12.02;;;;;;;;;;4939292;28;93561;-75
2022/03/09 08:41:52;;;;;;;17.55;12.00;;;;;;;;;;4939245;28;93311;-74
2022/03/09 08:44:37;;;;;;;15.95;12.23;;;;;;;;;;4939802;28;91755;-74
2022/03/09 08:47:04;;;;;;;17.90;11.15;;;;;;;;;;4938833;28;92439;-74
2022/03/09 08:49:33;;;;;;;27.25;11.75;;;;;;;;;;4938538;28;93530;-74
2022/03/09 08:51:59;;;;;;;19.55;11.38;;;;;;;;;;4939798;28;94759;-75
2022/03/09 08:54:26;;;;;;;15.50;11.75;;;;;;;;;;4970249;28;93762;-76
2022/03/09 08:56:52;;;;;;;14.43;11.40;;;;;;;;;;4939102;28;92450;-75
2022/03/09 08:59:21;;;;;;;21.25;11.77;;;;;;;;;;4937793;28;94429;-75
2022/03/09 09:01:47;;;;;;;24.52;11.32;;;;;;;;;;4938859;28;93696;-74
2022/03/09 09:04:20;;;;;;;14.88;11.75;;;;;;;;;;4938769;28;92371;-74
2022/03/09 09:06:47;;;;;;;17.05;11.35;;;;;;;;;;4936643;28;93907;-74
2022/03/09 09:09:17;;;;;;;19.67;12.10;;;;;;;;;;4939022;28;92586;-76
2022/03/09 09:11:44;;;;;;;17.40;11.05;;;;;;;;;;4940343;28;92245;-72
2022/03/09 09:14:10;;;;;;;16.17;12.15;;;;;;;;;;4941154;28;93542;-76
2022/03/09 09:16:41;;;;;;;19.95;12.10;;;;;;;;;;4936274;28;94850;-75
2022/03/09 09:19:08;;;;;;;15.70;12.13;;;;;;;;;;4938324;28;95705;-75
2022/03/09 09:21:34;;;;;;;17.08;11.73;;;;;;;;;;4937810;28;93217;-75
2022/03/09 09:24:01;;;;;;;19.67;12.18;;;;;;;;;;4938436;28;92470;-74
2022/03/09 09:26:27;;;;;;;19.10;12.27;;;;;;;;;;4938605;28;93728;-74
2022/03/09 09:29:14;;;;;;;20.50;11.90;;;;;;;;;;4938136;28;93604;-74
2022/03/09 09:31:44;;;;;;;20.80;13.05;;;;;;;;;;4938835;28;92397;-73
2022/03/09 09:34:12;;;;;;;15.35;12.23;;;;;;;;;;4939008;28;92926;-75
2022/03/09 09:36:42;;;;;;;15.77;12.57;;;;;;;;;;4940177;28;94124;-74
2022/03/09 09:39:08;;;;;;;19.10;13.32;;;;;;;;;;4938484;28;93246;-74
2022/03/09 09:41:36;;;;;;;17.27;12.27;;;;;;;;;;4936224;28;96201;-74
2022/03/09 09:44:03;;;;;;;18.45;12.80;;;;;;;;;;4938370;28;92409;-72
2022/03/09 09:46:29;;;;;;;18.58;12.50;;;;;;;;;;4938171;28;93671;-71
2022/03/09 09:48:56;;;;;;;16.48;11.95;;;;;;;;;;4938004;28;93526;-70
2022/03/09 09:51:23;;;;;;;26.67;13.27;;;;;;;;;;4937056;28;92869;-71
2022/03/09 09:53:50;;;;;;;18.75;12.45;;;;;;;;;;4938056;28;94100;-71
2022/03/09 09:56:18;;;;;;;17.02;13.43;;;;;;;;;;4937827;28;94272;-70
2022/03/09 09:58:45;;;;;;;19.45;12.55;;;;;;;;;;4941722;28;91429;-75
2022/03/09 10:01:11;;;;;;;18.13;12.85;;;;;;;;;;4938075;28;93664;-75
2022/03/09 10:03:38;;;;;;;18.45;13.30;;;;;;;;;;4937889;28;92338;-77
2022/03/09 10:06:05;;;;;;;19.52;13.85;;;;;;;;;;4936592;28;94675;-74
2022/03/09 10:08:35;;;;;;;20.45;13.45;;;;;;;;;;4937882;28;93710;-75
2022/03/09 10:11:02;;;;;;;19.75;13.43;;;;;;;;;;4937866;28;92373;-75
2022/03/09 10:13:30;;;;;;;21.38;13.15;;;;;;;;;;4937954;28;93634;-75
2022/03/09 10:16:07;;;;;;;23.55;13.52;;;;;;;;;;4937628;28;94400;-76
2022/03/09 10:18:34;;;;;;;19.75;13.38;;;;;;;;;;4940993;28;94004;-75
2022/03/09 10:21:11;;;;;;;23.60;14.93;;;;;;;;;;4938064;28;93702;-75
2022/03/09 10:23:50;;;;;;;21.23;14.30;;;;;;;;;;4938556;28;91517;-73
2022/03/09 10:26:17;;;;;;;29.80;14.80;;;;;;;;;;4937831;28;92414;-77
2022/03/09 10:29:03;;;;;;;20.05;13.98;;;;;;;;;;4937592;28;93823;-73
2022/03/09 10:31:34;;;;;;;22.10;13.63;;;;;;;;;;4935892;28;95503;-74
2022/03/09 10:34:09;;;;;;;22.65;14.52;;;;;;;;;;4936793;28;95271;-74
2022/03/09 10:36:35;;;;;;;22.38;13.85;;;;;;;;;;4937455;28;93647;-74
2022/03/09 10:39:14;;;;;;;23.13;14.23;;;;;;;;;;4936537;28;92337;-74
2022/03/09 10:41:41;;;;;;;21.02;13.85;;;;;;;;;;4940766;28;93783;-73
2022/03/09 10:44:08;;;;;;;22.42;13.18;;;;;;;;;;4937802;28;92275;-74
2022/03/09 10:46:54;;;;;;;17.65;13.43;;;;;;;;;;4937723;28;92959;-74
2022/03/09 10:49:24;;;;;;;18.48;13.75;;;;;;;;;;4937868;28;92954;-73
2022/03/09 10:51:52;;;;;;;18.00;13.77;;;;;;;;;;4937650;28;92487;-75
2022/03/09 10:54:22;;;;;;;20.40;14.25;;;;;;;;;;4937247;28;94262;-74
2022/03/09 10:56:49;;;;;;;26.63;14.52;;;;;;;;;;4935267;28;95965;-74
2022/03/09 10:59:16;;;;;;;24.20;14.52;;;;;;;;;;4937168;28;92388;-73
2022/03/09 11:01:43;;;;;;;21.52;14.45;;;;;;;;;;4936647;28;92886;-74
2022/03/09 11:04:17;;;;;;;24.35;14.25;;;;;;;;;;4940354;28;93568;-70
2022/03/09 11:06:46;;;;;;;25.63;15.18;;;;;;;;;;4936530;28;93346;-71
2022/03/09 11:09:14;;;;;;;20.98;15.05;;;;;;;;;;4936695;28;94031;-74
2022/03/09 11:11:41;;;;;;;22.38;14.40;;;;;;;;;;4937313;28;92249;-73
2022/03/09 11:14:08;;;;;;;22.27;14.57;;;;;;;;;;4937608;28;93371;-74
2022/03/09 11:16:34;;;;;;;27.23;15.73;;;;;;;;;;4936983;28;93584;-73
2022/03/09 11:19:01;;;;;;;24.38;15.82;;;;;;;;;;4937380;28;92451;-74
2022/03/09 11:21:29;;;;;;;23.77;16.08;;;;;;;;;;4935958;28;94774;-73
2022/03/09 11:23:56;;;;;;;22.48;15.77;;;;;;;;;;4936782;28;93096;-73
2022/03/09 11:26:26;;;;;;;23.48;16.38;;;;;;;;;;4940359;28;92229;-72
2022/03/09 11:29:00;;;;;;;24.90;15.88;;;;;;;;;;4937084;28;93009;-74
2022/03/09 11:31:41;;;;;;;27.65;16.52;;;;;;;;;;4937081;28;92285;-76
2022/03/09 11:34:28;;;;;;;26.13;16.45;;;;;;;;;;4936777;28;93461;-75
2022/03/09 11:36:59;;;;;;;25.13;16.00;;;;;;;;;;4936970;28;93587;-74
2022/03/09 11:39:25;;;;;;;26.80;15.48;;;;;;;;;;4937710;28;92579;-73
2022/03/09 11:42:15;;;;;;;23.13;16.83;;;;;;;;;;4937095;28;93357;-73
2022/03/09 11:44:46;;;;;;;27.10;16.13;;;;;;;;;;4936135;28;93627;-74
2022/03/09 11:47:12;;;;;;;24.48;16.42;;;;;;;;;;4935360;28;94752;-74
2022/03/09 11:49:41;;;;;;;25.83;16.80;;;;;;;;;;4939893;28;95259;-75
2022/03/09 11:52:10;;;;;;;21.65;16.48;;;;;;;;;;4936894;28;93148;-75
2022/03/09 11:54:43;;;;;;;28.45;17.33;;;;;;;;;;4918373;28;93999;-74
2022/03/09 11:57:10;;;;;;;23.90;17.08;;;;;;;;;;4935453;28;94128;-76
2022/03/09 11:59:37;;;;;;;25.15;17.27;;;;;;;;;;4935766;28;92362;-77
2022/03/09 12:02:10;;;;;;;24.42;17.30;;;;;;;;;;4936852;28;93169;-74
2022/03/09 12:04:39;;;;;;;28.95;17.65;;;;;;;;;;4937045;28;92537;-75
2022/03/09 12:07:09;;;;;;;26.17;18.38;;;;;;;;;;4935826;28;92225;-74
2022/03/09 12:09:51;;;;;;;27.40;17.00;;;;;;;;;;4938577;28;92983;-75
2022/03/09 12:12:17;;;;;;;26.05;18.15;;;;;;;;;;4937191;28;94737;-74
2022/03/09 12:15:02;;;;;;;25.85;17.75;;;;;;;;;;4939664;28;95995;-74
2022/03/09 12:17:43;;;;;;;29.80;18.13;;;;;;;;;;4939672;28;93780;-74
2022/03/09 12:20:14;;;;;;;25.73;16.52;;;;;;;;;;4939187;28;92922;-73
2022/03/09 12:22:59;;;;;;;26.02;18.27;;;;;;;;;;4939853;28;93785;-73
2022/03/09 12:25:38;;;;;;;28.38;18.42;;;;;;;;;;4939568;28;93529;-72
2022/03/09 12:28:27;;;;;;;26.85;18.85;;;;;;;;;;4939643;28;92413;-74
2022/03/09 12:30:56;;;;;;;29.23;17.98;;;;;;;;;;4939702;28;93039;-73
2022/03/09 12:33:26;;;;;;;25.40;17.95;;;;;;;;;;4942445;28;93877;-74
2022/03/09 12:36:02;;;;;;;34.30;19.15;;;;;;;;;;4939515;28;93086;-74
2022/03/09 12:38:50;;;;;;;30.45;18.15;;;;;;;;;;4936482;28;97114;-73
2022/03/09 12:41:30;;;;;;;27.95;19.48;;;;;;;;;;4939591;28;92275;-74
2022/03/09 12:43:59;;;;;;;28.95;18.40;;;;;;;;;;4939523;28;94036;-74
2022/03/09 12:46:26;;;;;;;29.75;18.38;;;;;;;;;;4938859;28;95041;-75
2022/03/09 12:48:59;;;;;;;28.15;18.65;;;;;;;;;;4939493;28;92241;-73
2022/03/09 12:51:26;;;;;;;29.00;19.35;;;;;;;;;;4938760;28;93819;-77
2022/03/09 12:54:14;;;;;;;27.63;19.10;;;;;;;;;;4939023;28;93771;-77
2022/03/09 12:56:40;;;;;;;30.27;18.65;;;;;;;;;;4943016;28;92107;-75
2022/03/09 12:59:09;;;;;;;31.38;19.13;;;;;;;;;;4938755;28;94655;-74
2022/03/09 13:01:37;;;;;;;35.42;20.30;;;;;;;;;;4921834;28;92370;-75
2022/03/09 13:04:04;;;;;;;36.55;20.20;;;;;;;;;;4937277;28;94808;-75
2022/03/09 13:06:32;;;;;;;31.35;20.15;;;;;;;;;;4939079;28;93083;-75
2022/03/09 13:08:59;;;;;;;33.67;21.23;;;;;;;;;;4939211;28;92241;-75
2022/03/09 13:11:27;;;;;;;35.85;21.17;;;;;;;;;;4939182;28;93028;-75
2022/03/09 13:13:54;;;;;;;33.38;21.40;;;;;;;;;;4938695;28;93665;-75
2022/03/09 13:16:26;;;;;;;37.03;21.25;;;;;;;;;;4938781;28;92294;-77
2022/03/09 13:18:57;;;;;;;32.63;20.73;;;;;;;;;;4941896;28;92591;-74
2022/03/09 13:21:26;;;;;;;36.87;21.93;;;;;;;;;;4939243;28;91513;-75
2022/03/09 13:24:11;;;;;;;34.78;21.38;;;;;;;;;;4903685;28;92608;-75
2022/03/09 13:26:39;;;;;;;31.20;20.70;;;;;;;;;;4938730;28;92779;-76
2022/03/09 13:29:10;;;;;;;31.65;20.83;;;;;;;;;;4936581;28;94786;-74
2022/03/09 13:31:40;;;;;;;31.65;20.63;;;;;;;;;;4937972;28;96890;-74
2022/03/09 13:34:14;;;;;;;32.47;21.15;;;;;;;;;;4938349;28;93684;-75
2022/03/09 13:36:43;;;;;;;32.65;21.63;;;;;;;;;;4938557;28;92346;-77
2022/03/09 13:39:10;;;;;;;31.52;20.38;;;;;;;;;;4938432;28;92827;-75
2022/03/09 13:41:41;;;;;;;29.40;20.55;;;;;;;;;;4940898;28;93619;-77
2022/03/09 13:44:23;;;;;;;32.97;20.80;;;;;;;;;;4937652;28;93180;-75
2022/03/09 13:47:03;;;;;;;36.25;21.02;;;;;;;;;;4938651;28;92251;-76
2022/03/09 13:49:43;;;;;;;34.70;21.10;;;;;;;;;;4937935;28;92342;-75
2022/03/09 13:52:30;;;;;;;34.50;20.95;;;;;;;;;;4938015;28;93889;-76
2022/03/09 13:54:58;;;;;;;32.72;20.67;;;;;;;;;;4935506;28;97222;-75
2022/03/09 13:57:28;;;;;;;40.60;22.00;;;;;;;;;;4937951;28;92316;-74
2022/03/09 13:59:56;;;;;;;35.88;22.50;;;;;;;;;;4936964;28;93485;-76
2022/03/09 14:02:24;;;;;;;39.35;21.52;;;;;;;;;;4936923;28;93700;-74
2022/03/09 14:04:51;;;;;;;30.83;21.35;;;;;;;;;;4940401;28;93107;-77
2022/03/09 14:07:18;;;;;;;33.53;21.45;;;;;;;;;;4937403;28;93831;-75
2022/03/09 14:10:03;;;;;;;31.67;21.85;;;;;;;;;;4937226;28;92271;-75
2022/03/09 14:12:36;;;;;;;35.40;21.70;;;;;;;;;;4934213;28;92455;-75
2022/03/09 14:15:03;;;;;;;31.48;21.45;;;;;;;;;;4937810;28;96460;-75
2022/03/09 14:17:29;;;;;;;32.38;22.00;;;;;;;;;;4937352;28;92364;-75
2022/03/09 14:19:56;;;;;;;35.90;21.27;;;;;;;;;;4921428;28;95516;-75
2022/03/09 14:22:22;;;;;;;38.40;22.35;;;;;;;;;;4937121;28;94344;-74
2022/03/09 14:24:48;;;;;;;32.95;22.20;;;;;;;;;;4940780;28;92277;-76
2022/03/09 14:27:15;;;;;;;35.42;21.73;;;;;;;;;;4939348;28;93682;-76